Time;durP1;ratioP1;P1;durP2;ratioP2;P2;SDS_P1;SDS_P2;PMS_P1;PMS_P2;Temp;Humidity;BMP_temperature;BMP_pressure;BME280_temperature;BME280_humidity;BME280_pressure;Samples;Min_cycle;Max_cycle;Signal;HPM_P1;HPM_P2
2020/12/26 00:02:02;;;;;;;11.03;7.77;;;;;;;11.07;75.41;94421.75;5020145;28;20463;-84
2020/12/26 00:04:30;;;;;;;13.90;9.50;;;;;;;11.00;75.79;94426.78;5020072;28;20453;-84
2020/12/26 00:06:56;;;;;;;15.30;10.50;;;;;;;10.95;75.58;94436.84;5017192;28;20530;-83
2020/12/26 00:09:22;;;;;;;14.00;9.53;;;;;;;11.03;76.52;94450.13;4983773;28;20450;-83
2020/12/26 00:11:51;;;;;;;11.87;8.77;;;;;;;10.93;76.97;94435.34;5018206;28;20454;-83
2020/12/26 00:14:18;;;;;;;13.00;8.37;;;;;;;10.76;77.20;94410.69;5016787;28;20454;-83
2020/12/26 00:16:44;;;;;;;18.63;10.60;;;;;;;10.41;80.08;94398.22;5016433;28;21006;-84
2020/12/26 00:19:14;;;;;;;12.67;8.47;;;;;;;10.45;79.12;94416.16;5016318;28;20545;-84
2020/12/26 00:21:42;;;;;;;15.83;9.97;;;;;;;10.65;79.53;94437.91;5016249;28;20443;-83
2020/12/26 00:24:09;;;;;;;20.70;10.80;;;;;;;10.64;79.50;94430.19;5018200;28;20466;-83
2020/12/26 00:26:35;;;;;;;14.57;9.03;;;;;;;10.65;79.70;94437.06;5017215;28;20461;-84
2020/12/26 00:29:01;;;;;;;10.33;7.87;;;;;;;10.70;80.00;94443.59;5015780;28;20517;-84
2020/12/26 00:31:28;;;;;;;16.80;10.97;;;;;;;10.76;79.14;94450.88;5015523;28;20489;-84
2020/12/26 00:33:54;;;;;;;15.47;8.60;;;;;;;10.75;78.98;94441.34;5015898;28;20458;-82
2020/12/26 00:36:20;;;;;;;11.63;7.90;;;;;;;10.69;79.90;94422.69;5015318;28;20550;-82
2020/12/26 00:38:48;;;;;;;12.50;8.90;;;;;;;10.77;79.78;94431.53;5015787;28;20944;-81
2020/12/26 00:41:15;;;;;;;12.57;9.03;;;;;;;10.90;79.76;94449.59;4981417;28;20998;-83
2020/12/26 00:43:41;;;;;;;14.50;8.87;;;;;;;11.00;79.92;94457.44;5015818;28;20458;-83
2020/12/26 00:46:08;;;;;;;11.10;8.67;;;;;;;11.01;79.18;94452.06;5016103;28;20869;-83
2020/12/26 00:48:35;;;;;;;15.23;8.97;;;;;;;10.86;80.71;94442.97;5014975;28;20455;-83
2020/12/26 00:51:02;;;;;;;15.10;9.30;;;;;;;10.99;81.00;94454.00;5015390;28;20513;-83
2020/12/26 00:53:29;;;;;;;15.67;11.47;;;;;;;11.08;80.31;94452.31;5015906;28;20482;-83
2020/12/26 00:55:56;;;;;;;14.40;9.97;;;;;;;11.14;79.89;94449.91;5015349;28;20443;-83
2020/12/26 00:58:22;;;;;;;19.57;9.57;;;;;;;11.14;79.92;94459.59;5015521;28;20490;-83
2020/12/26 01:00:49;;;;;;;32.57;16.23;;;;;;;10.62;83.11;94443.44;5015358;28;20458;-82
2020/12/26 01:03:15;;;;;;;19.37;12.57;;;;;;;10.65;84.61;94450.19;5015274;28;20881;-83
2020/12/26 01:05:42;;;;;;;17.03;11.27;;;;;;;10.84;83.12;94460.66;5014804;28;20510;-83
2020/12/26 01:08:09;;;;;;;22.33;12.23;;;;;;;10.92;82.47;94452.88;5015152;28;20450;-82
2020/12/26 01:10:35;;;;;;;19.93;13.50;;;;;;;10.99;82.26;94450.53;5014814;28;20837;-83
2020/12/26 01:13:02;;;;;;;30.00;16.00;;;;;;;11.08;81.81;94455.75;5014679;28;20806;-83
2020/12/26 01:15:29;;;;;;;32.37;23.10;;;;;;;11.13;81.49;94453.53;5014457;28;20451;-83
2020/12/26 01:17:55;;;;;;;34.97;23.60;;;;;;;11.21;81.93;94449.34;4980130;28;20471;-83
2020/12/26 01:20:22;;;;;;;30.07;18.60;;;;;;;11.24;80.88;94449.03;5014379;28;20479;-83
2020/12/26 01:22:48;;;;;;;38.07;19.17;;;;;;;11.29;81.55;94457.34;5015282;28;20463;-83
2020/12/26 01:25:14;;;;;;;39.33;20.33;;;;;;;11.22;81.03;94440.47;4980386;28;20506;-83
2020/12/26 01:27:41;;;;;;;31.13;17.50;;;;;;;11.20;81.65;94427.50;5015119;28;20810;-83
2020/12/26 01:30:08;;;;;;;29.97;17.97;;;;;;;11.14;82.00;94430.72;4980079;28;20487;-83
2020/12/26 01:32:34;;;;;;;27.40;15.40;;;;;;;11.19;82.25;94433.72;4980133;28;20458;-82
2020/12/26 01:35:01;;;;;;;28.60;15.83;;;;;;;11.15;81.72;94429.75;5014591;28;20447;-83
2020/12/26 01:37:28;;;;;;;31.60;15.37;;;;;;;11.08;82.20;94429.50;5014706;28;20463;-83
2020/12/26 01:39:55;;;;;;;24.03;13.73;;;;;;;11.10;81.55;94427.56;5014498;28;20458;-83
2020/12/26 01:42:21;;;;;;;19.00;11.03;;;;;;;11.11;81.20;94418.69;5014093;28;20455;-83
2020/12/26 01:44:48;;;;;;;27.30;12.60;;;;;;;11.09;81.15;94431.16;4995873;28;20455;-83
2020/12/26 01:47:16;;;;;;;18.83;11.43;;;;;;;11.10;81.74;94422.31;5014222;28;20465;-83
2020/12/26 01:49:43;;;;;;;17.90;11.33;;;;;;;11.12;80.89;94436.09;5014143;28;20444;-83
2020/12/26 01:52:11;;;;;;;12.83;10.33;;;;;;;10.98;81.59;94410.31;5014023;28;20459;-83
2020/12/26 01:54:38;;;;;;;21.10;13.27;;;;;;;10.55;83.54;94387.25;5013874;28;20459;-83
2020/12/26 01:57:06;;;;;;;19.97;13.53;;;;;;;10.66;83.96;94391.50;5014076;28;20543;-83
2020/12/26 01:59:32;;;;;;;23.83;13.00;;;;;;;10.71;83.54;94387.50;5013556;28;20841;-83
2020/12/26 02:01:59;;;;;;;19.70;11.50;;;;;;;10.75;83.58;94407.25;5014259;28;20457;-83
2020/12/26 02:04:27;;;;;;;20.87;12.43;;;;;;;10.73;83.54;94397.84;5014229;28;21006;-82
2020/12/26 02:06:57;;;;;;;18.13;11.37;;;;;;;10.41;85.25;94372.00;5014135;28;20502;-82
2020/12/26 02:09:25;;;;;;;19.53;12.47;;;;;;;10.48;84.57;94384.38;4995647;28;21049;-83
2020/12/26 02:11:51;;;;;;;25.83;12.70;;;;;;;10.52;85.18;94411.97;5014212;28;20895;-83
2020/12/26 02:14:18;;;;;;;33.53;18.10;;;;;;;10.49;85.02;94409.66;5014250;28;20447;-82
2020/12/26 02:16:46;;;;;;;33.10;19.90;;;;;;;10.50;84.64;94386.88;5014134;28;20459;-83
2020/12/26 02:19:13;;;;;;;31.70;16.10;;;;;;;10.51;85.05;94391.97;5013903;28;20451;-83
2020/12/26 02:21:41;;;;;;;24.47;16.80;;;;;;;10.55;85.15;94401.22;4979426;28;20546;-83
2020/12/26 02:24:08;;;;;;;16.43;11.30;;;;;;;10.59;84.87;94408.78;5013918;28;20488;-83
2020/12/26 02:26:35;;;;;;;14.23;9.53;;;;;;;10.57;84.49;94389.75;5014047;28;20459;-83
2020/12/26 02:29:02;;;;;;;13.10;9.13;;;;;;;10.64;85.02;94390.81;5013985;28;20445;-83
2020/12/26 02:31:29;;;;;;;16.10;10.73;;;;;;;10.68;84.55;94397.44;5013130;28;20858;-83
2020/12/26 02:33:55;;;;;;;16.10;9.70;;;;;;;10.69;84.83;94412.19;5013440;28;20447;-83
2020/12/26 02:36:22;;;;;;;16.93;12.33;;;;;;;10.69;83.85;94407.78;5013296;28;20940;-83
2020/12/26 02:38:48;;;;;;;16.60;12.13;;;;;;;10.70;84.06;94400.78;5013356;28;20450;-83
2020/12/26 02:41:16;;;;;;;15.37;11.67;;;;;;;10.69;84.04;94402.53;5013206;28;20454;-83
2020/12/26 02:43:42;;;;;;;19.90;12.97;;;;;;;10.71;83.76;94410.28;5013363;28;20455;-83
2020/12/26 02:46:09;;;;;;;18.23;14.03;;;;;;;10.71;83.36;94391.94;5013129;28;20446;-83
2020/12/26 02:48:35;;;;;;;35.13;13.53;;;;;;;10.68;84.23;94394.81;5013474;28;20451;-83
2020/12/26 02:51:01;;;;;;;19.63;13.60;;;;;;;10.70;84.29;94393.72;4978999;28;20560;-84
2020/12/26 02:53:28;;;;;;;23.63;14.90;;;;;;;10.71;83.87;94402.41;5013386;28;20967;-83
2020/12/26 02:55:54;;;;;;;15.93;12.33;;;;;;;10.71;83.69;94400.63;5013072;28;20451;-83
2020/12/26 02:58:22;;;;;;;17.00;11.77;;;;;;;10.68;83.21;94410.56;5013828;28;20478;-83
2020/12/26 03:00:49;;;;;;;14.80;11.70;;;;;;;10.69;83.83;94418.28;5013573;28;20446;-83
2020/12/26 03:03:15;;;;;;;17.90;10.70;;;;;;;10.67;83.53;94414.16;5013324;28;20529;-83
2020/12/26 03:05:42;;;;;;;20.93;13.67;;;;;;;10.63;83.84;94431.16;5013483;28;20463;-83
2020/12/26 03:08:08;;;;;;;25.33;15.13;;;;;;;10.60;84.20;94442.75;5013283;28;20539;-83
2020/12/26 03:10:35;;;;;;;22.50;15.40;;;;;;;10.47;84.64;94445.69;5013121;28;20542;-83
2020/12/26 03:13:01;;;;;;;18.67;12.77;;;;;;;10.16;87.43;94442.38;5013072;28;20459;-83
2020/12/26 03:15:29;;;;;;;20.70;12.50;;;;;;;10.12;88.42;94441.00;5013497;28;20529;-82
2020/12/26 03:17:55;;;;;;;13.40;10.50;;;;;;;9.98;89.91;94412.56;5013424;28;20445;-83
2020/12/26 03:20:21;;;;;;;15.90;10.27;;;;;;;9.93;91.88;94420.84;4994911;28;20502;-83
2020/12/26 03:22:48;;;;;;;20.87;13.60;;;;;;;9.83;93.18;94422.66;5013350;28;20447;-83
2020/12/26 03:25:14;;;;;;;15.70;11.67;;;;;;;9.79;94.88;94436.13;5013229;28;20448;-83
2020/12/26 03:27:41;;;;;;;17.17;10.70;;;;;;;9.74;96.49;94430.47;5013256;28;20454;-82
2020/12/26 03:30:07;;;;;;;13.43;11.67;;;;;;;9.73;96.47;94434.06;5013011;28;20480;-83
2020/12/26 03:32:36;;;;;;;15.30;11.20;;;;;;;9.80;96.86;94454.34;4978845;28;20446;-83
2020/12/26 03:35:02;;;;;;;13.60;10.50;;;;;;;9.83;95.43;94456.72;5012520;28;20465;-83
2020/12/26 03:37:29;;;;;;;16.50;11.13;;;;;;;9.39;98.75;94441.44;5012546;28;20445;-83
2020/12/26 03:39:56;;;;;;;17.50;12.20;;;;;;;9.59;96.98;94435.28;5012957;28;20848;-83
2020/12/26 03:42:22;;;;;;;16.90;12.80;;;;;;;9.69;96.08;94428.28;5012687;28;20934;-82
2020/12/26 03:44:48;;;;;;;17.63;13.03;;;;;;;9.67;96.24;94439.84;5013314;28;20485;-83
2020/12/26 03:47:15;;;;;;;19.30;13.40;;;;;;;9.76;94.89;94437.22;5012779;28;20500;-83
2020/12/26 03:49:42;;;;;;;16.13;12.33;;;;;;;9.81;94.29;94440.25;4978390;28;20454;-83
2020/12/26 03:52:08;;;;;;;21.77;13.70;;;;;;;9.82;93.85;94446.34;4978488;28;20461;-83
2020/12/26 03:54:35;;;;;;;17.97;14.33;;;;;;;9.89;93.87;94445.69;5012696;28;20441;-83
2020/12/26 03:57:01;;;;;;;25.40;14.87;;;;;;;9.82;93.53;94443.72;5012894;28;20957;-83
2020/12/26 03:59:28;;;;;;;19.83;13.33;;;;;;;9.87;93.64;94449.41;5012833;28;20480;-83
2020/12/26 04:01:54;;;;;;;22.30;15.20;;;;;;;9.80;93.66;94433.38;5012733;28;20455;-82
2020/12/26 04:04:20;;;;;;;40.47;22.40;;;;;;;9.84;93.18;94437.41;5012765;28;20445;-83
2020/12/26 04:06:48;;;;;;;25.47;17.30;;;;;;;9.90;92.83;94428.16;5012403;28;20454;-83
2020/12/26 04:09:14;;;;;;;24.73;16.80;;;;;;;9.96;92.27;94439.88;5012665;28;20818;-83
2020/12/26 04:11:42;;;;;;;19.97;13.50;;;;;;;10.03;90.76;94451.47;5012007;28;20482;-83
2020/12/26 04:14:08;;;;;;;22.30;16.60;;;;;;;10.00;90.38;94452.56;5012292;28;20449;-83
2020/12/26 04:16:35;;;;;;;26.20;16.73;;;;;;;10.05;90.08;94449.53;5012247;28;20497;-83
2020/12/26 04:19:01;;;;;;;30.30;17.17;;;;;;;10.08;89.53;94441.38;5012328;28;20533;-83
2020/12/26 04:21:27;;;;;;;25.83;16.67;;;;;;;10.09;89.63;94435.19;5012911;28;20801;-83
2020/12/26 04:23:55;;;;;;;24.13;16.03;;;;;;;10.12;89.53;94442.75;5014402;28;20435;-83
2020/12/26 04:26:22;;;;;;;23.40;17.10;;;;;;;10.03;89.57;94440.97;5016047;28;20549;-83
2020/12/26 04:28:49;;;;;;;23.93;17.30;;;;;;;9.73;91.79;94440.13;4980944;28;20463;-84
2020/12/26 04:31:15;;;;;;;19.63;14.87;;;;;;;9.77;91.68;94452.00;5015708;28;20488;-83
2020/12/26 04:33:42;;;;;;;20.27;15.33;;;;;;;9.83;91.60;94451.47;5016205;28;20442;-84
2020/12/26 04:36:08;;;;;;;25.03;15.60;;;;;;;9.87;91.65;94442.38;4981840;28;20454;-83
2020/12/26 04:38:35;;;;;;;21.23;15.83;;;;;;;9.91;91.19;94433.25;5016394;28;20469;-83
2020/12/26 04:41:03;;;;;;;23.70;16.40;;;;;;;9.98;90.89;94427.47;5016156;28;20950;-83
2020/12/26 04:43:30;;;;;;;21.00;14.90;;;;;;;9.98;89.96;94430.09;4981951;28;20459;-83
2020/12/26 04:45:58;;;;;;;18.70;15.73;;;;;;;9.99;91.00;94423.88;5015781;28;20509;-83
2020/12/26 04:48:25;;;;;;;23.07;15.80;;;;;;;10.01;91.04;94428.00;5016021;28;20440;-83
2020/12/26 04:50:56;;;;;;;25.23;15.07;;;;;;;10.02;90.65;94418.34;5016269;28;20487;-90
2020/12/26 04:53:31;;;;;;;22.13;15.87;;;;;;;9.99;89.77;94429.13;5017608;28;20446;-90
2020/12/26 04:56:00;;;;;;;33.63;20.00;;;;;;;9.98;90.49;94432.72;5017758;28;20474;-89
2020/12/26 04:58:29;;;;;;;38.63;22.20;;;;;;;9.95;90.07;94431.19;5016695;28;20485;-90
2020/12/26 05:00:56;;;;;;;36.65;23.27;;;;;;;9.98;91.30;94435.31;5017011;28;20917;-90
2020/12/26 05:03:26;;;;;;;30.20;22.47;;;;;;;10.04;90.35;94426.91;5016406;28;20210;-86
2020/12/26 05:05:59;;;;;;;28.13;20.17;;;;;;;10.02;90.05;94426.22;5016002;28;20450;-86
2020/12/26 05:08:26;;;;;;;31.50;17.53;;;;;;;9.99;90.10;94434.34;5016755;28;20942;-86
2020/12/26 05:10:53;;;;;;;24.83;17.67;;;;;;;9.96;89.94;94435.47;5016190;28;20481;-86
2020/12/26 05:13:19;;;;;;;22.83;16.90;;;;;;;9.91;89.93;94428.03;4998270;28;20451;-86
2020/12/26 05:15:47;;;;;;;24.47;16.13;;;;;;;9.89;91.01;94437.81;5016017;28;20461;-87
2020/12/26 05:18:13;;;;;;;32.87;19.63;;;;;;;9.84;90.93;94439.19;5016304;28;20798;-87
2020/12/26 05:20:39;;;;;;;27.30;19.20;;;;;;;9.86;91.39;94432.84;5018857;28;20832;-84
2020/12/26 05:23:08;;;;;;;27.80;21.67;;;;;;;9.85;91.38;94425.94;5016306;28;20448;-87
2020/12/26 05:25:38;;;;;;;24.20;18.00;;;;;;;9.89;90.36;94431.75;5017294;28;20447;-85
2020/12/26 05:28:10;;;;;;;24.77;17.93;;;;;;;9.90;91.05;94439.47;4981621;28;20484;-85
2020/12/26 05:30:37;;;;;;;31.20;21.37;;;;;;;9.81;90.77;94429.78;5016392;28;20544;-85
2020/12/26 05:33:06;;;;;;;39.37;27.87;;;;;;;9.73;91.56;94437.50;5016705;28;20873;-85
2020/12/26 05:35:41;;;;;;;35.90;24.67;;;;;;;9.72;92.07;94429.78;5016009;28;20452;-85
2020/12/26 05:38:15;;;;;;;33.13;23.40;;;;;;;9.70;92.20;94427.31;5015602;28;20440;-84
2020/12/26 05:40:42;;;;;;;37.13;25.67;;;;;;;9.66;92.04;94444.25;5015710;28;20462;-84
2020/12/26 05:43:11;;;;;;;48.73;31.00;;;;;;;9.60;92.49;94431.72;5016241;28;20937;-85
2020/12/26 05:45:41;;;;;;;44.13;30.17;;;;;;;9.43;92.51;94438.41;5015749;28;20445;-85
2020/12/26 05:48:09;;;;;;;33.50;24.30;;;;;;;9.48;93.20;94445.88;5015083;28;20454;-84
2020/12/26 05:50:36;;;;;;;22.90;16.83;;;;;;;9.52;92.83;94450.69;5014966;28;20489;-84
2020/12/26 05:53:02;;;;;;;26.83;16.53;;;;;;;9.34;92.10;94444.47;5015326;28;20437;-85
2020/12/26 05:55:37;;;;;;;27.00;16.70;;;;;;;9.29;93.14;94434.41;5016018;28;20442;-85
2020/12/26 05:58:03;;;;;;;29.23;17.27;;;;;;;9.31;93.59;94440.31;5015748;28;20473;-85
2020/12/26 06:00:35;;;;;;;31.20;20.80;;;;;;;9.35;93.74;94442.69;5015212;28;20446;-85
2020/12/26 06:03:22;;;;;;;33.80;19.90;;;;;;;9.17;93.05;94437.25;5015328;28;20970;-85
2020/12/26 06:05:49;;;;;;;50.93;29.10;;;;;;;9.21;93.72;94452.53;5014879;28;20464;-84
2020/12/26 06:08:16;;;;;;;56.07;34.10;;;;;;;9.19;93.78;94443.16;5014885;28;20884;-85
2020/12/26 06:10:48;;;;;;;40.75;28.02;;;;;;;9.11;94.56;94454.31;5013964;28;20450;-84
2020/12/26 06:13:17;;;;;;;37.43;22.67;;;;;;;9.10;95.13;94463.13;5014955;28;20203;-85
2020/12/26 06:15:49;;;;;;;26.83;19.40;;;;;;;8.98;96.08;94465.00;5014290;28;20512;-83
2020/12/26 06:18:16;;;;;;;25.73;17.20;;;;;;;8.71;97.98;94463.91;5014458;28;20457;-85
2020/12/26 06:20:44;;;;;;;24.30;16.30;;;;;;;8.78;97.94;94485.97;5014394;28;20457;-84
2020/12/26 06:23:16;;;;;;;23.43;15.13;;;;;;;8.82;97.87;94496.03;5014978;28;20465;-84
2020/12/26 06:25:44;;;;;;;31.20;18.97;;;;;;;8.87;97.58;94486.00;5014139;28;20449;-85
2020/12/26 06:28:28;;;;;;;27.53;19.77;;;;;;;8.84;97.60;94478.41;5014684;28;20454;-84
2020/12/26 06:30:56;;;;;;;31.57;20.27;;;;;;;8.88;97.76;94489.44;5014615;28;20488;-84
2020/12/26 06:33:25;;;;;;;32.30;22.40;;;;;;;8.88;96.95;94482.44;5014124;28;20445;-84
2020/12/26 06:35:53;;;;;;;31.07;22.60;;;;;;;8.59;97.90;94470.97;5014394;28;20441;-84
2020/12/26 06:38:23;;;;;;;34.13;25.13;;;;;;;8.52;99.03;94477.69;5014981;28;20467;-85
2020/12/26 06:40:52;;;;;;;37.03;27.03;;;;;;;8.47;99.54;94485.91;5014722;28;20547;-88
2020/12/26 06:43:50;;;;;;;38.33;24.40;;;;;;;8.45;100.00;94494.84;5015012;28;20479;-87
2020/12/26 06:46:39;;;;;;;41.13;27.67;;;;;;;8.58;100.00;94501.53;5012663;28;20459;-79
2020/12/26 06:49:07;;;;;;;59.87;32.63;;;;;;;8.71;100.00;94510.97;5012564;28;20463;-79
2020/12/26 06:51:36;;;;;;;54.53;34.97;;;;;;;8.67;99.47;94477.25;5007302;28;20484;-79
2020/12/26 06:54:04;;;;;;;54.33;35.57;;;;;;;8.56;99.79;94463.38;5012190;28;20445;-78
2020/12/26 06:56:49;;;;;;;45.40;33.63;;;;;;;8.65;100.00;94497.44;5005664;28;20450;-82
2020/12/26 06:59:16;;;;;;;46.17;28.70;;;;;;;8.69;99.86;94516.34;4994293;28;20488;-82
2020/12/26 07:01:44;;;;;;;36.43;23.47;;;;;;;8.56;99.81;94476.47;4993003;28;20449;-81
2020/12/26 07:04:12;;;;;;;40.08;29.42;;;;;;;8.69;100.00;94505.88;4992432;28;20436;-82
2020/12/26 07:06:41;;;;;;;35.40;26.30;;;;;;;8.80;100.00;94505.81;4993683;28;20206;-88
2020/12/26 07:09:08;;;;;;;31.63;19.60;;;;;;;8.66;100.00;94491.25;4993901;28;20434;-85
2020/12/26 07:11:44;;;;;;;31.27;19.20;;;;;;;8.78;100.00;94506.88;4994206;28;20984;-85
2020/12/26 07:14:28;;;;;;;28.90;19.87;;;;;;;8.78;100.00;94480.72;4994127;28;20511;-85
2020/12/26 07:16:54;;;;;;;26.77;19.27;;;;;;;8.85;99.40;94495.78;4994100;28;20857;-85
2020/12/26 07:19:39;;;;;;;27.33;19.43;;;;;;;8.91;98.99;94469.09;4993934;28;20451;-84
2020/12/26 07:22:12;;;;;;;24.70;17.67;;;;;;;8.81;99.00;94449.06;4994341;28;20828;-84
2020/12/26 07:24:40;;;;;;;25.57;17.00;;;;;;;8.76;100.00;94485.25;4993906;28;20461;-83
2020/12/26 07:27:27;;;;;;;28.90;20.10;;;;;;;8.80;100.00;94450.88;4993832;28;20457;-84
2020/12/26 07:29:56;;;;;;;16.53;12.73;;;;;;;8.58;100.00;94451.00;4993566;28;20458;-86
2020/12/26 07:32:42;;;;;;;21.53;15.87;;;;;;;8.62;100.00;94489.84;4993099;28;20479;-81
2020/12/26 07:35:14;;;;;;;25.20;16.20;;;;;;;8.70;100.00;94497.06;4992986;28;20453;-78
2020/12/26 07:37:42;;;;;;;22.43;16.90;;;;;;;8.71;100.00;94449.03;4992835;28;20446;-79
2020/12/26 07:40:09;;;;;;;26.13;19.50;;;;;;;8.73;100.00;94485.53;4993047;28;20504;-78
2020/12/26 07:42:35;;;;;;;23.27;16.90;;;;;;;8.79;100.00;94501.53;4992853;28;20445;-77
2020/12/26 07:45:09;;;;;;;30.90;23.30;;;;;;;8.73;100.00;94461.97;4992731;28;20447;-78
2020/12/26 07:47:41;;;;;;;27.63;19.30;;;;;;;8.71;100.00;94495.28;4993335;28;20821;-88
2020/12/26 07:50:07;;;;;;;26.77;20.90;;;;;;;8.73;100.00;94503.84;4993748;28;20861;-85
2020/12/26 07:52:34;;;;;;;34.50;22.47;;;;;;;8.55;100.00;94470.41;4993475;28;20451;-80
2020/12/26 07:55:03;;;;;;;31.47;21.10;;;;;;;8.59;100.00;94500.56;4993659;28;20454;-86
2020/12/26 07:57:30;;;;;;;26.63;21.17;;;;;;;8.69;100.00;94477.94;4994274;28;20499;-84
2020/12/26 07:59:57;;;;;;;33.00;20.77;;;;;;;8.82;100.00;94469.03;4997297;28;20462;-85
2020/12/26 08:02:23;;;;;;;28.10;19.93;;;;;;;8.76;100.00;94466.94;4997321;28;20503;-85
2020/12/26 08:04:50;;;;;;;23.77;18.20;;;;;;;8.78;100.00;94472.88;4997474;28;20449;-82
2020/12/26 08:07:18;;;;;;;46.93;30.67;;;;;;;8.93;100.00;94468.94;4996827;28;20449;-84
2020/12/26 08:09:51;;;;;;;26.33;20.13;;;;;;;8.93;100.00;94476.81;4996590;28;20448;-81
2020/12/26 08:12:20;;;;;;;22.30;16.70;;;;;;;9.03;100.00;94509.09;4995989;28;20495;-81
2020/12/26 08:14:56;;;;;;;27.10;19.80;;;;;;;9.06;99.07;94472.19;4996252;28;20442;-81
2020/12/26 08:17:23;;;;;;;34.20;19.93;;;;;;;9.10;99.18;94484.06;4996253;28;20442;-83
2020/12/26 08:19:57;;;;;;;26.53;21.13;;;;;;;9.00;98.53;94489.25;4996397;28;20456;-82
2020/12/26 08:22:23;;;;;;;28.67;18.87;;;;;;;9.12;99.48;94512.72;4996828;28;20458;-84
2020/12/26 08:24:50;;;;;;;34.37;23.53;;;;;;;9.14;98.81;94489.84;4996631;28;20510;-85
2020/12/26 08:27:19;;;;;;;24.60;18.57;;;;;;;8.87;99.09;94495.63;4997237;28;20501;-84
2020/12/26 08:29:46;;;;;;;25.57;17.20;;;;;;;8.57;100.00;94478.94;4996908;28;20449;-84
2020/12/26 08:32:14;;;;;;;27.30;17.67;;;;;;;8.81;100.00;94496.16;4996532;28;20493;-83
2020/12/26 08:34:47;;;;;;;22.13;17.53;;;;;;;8.89;100.00;94480.63;4998644;28;21019;-83
2020/12/26 08:37:23;;;;;;;20.53;15.20;;;;;;;8.78;100.00;94489.41;4997615;28;20441;-84
2020/12/26 08:39:56;;;;;;;25.10;17.47;;;;;;;8.94;100.00;94483.69;4998883;28;20939;-88
2020/12/26 08:42:26;;;;;;;19.00;16.30;;;;;;;9.03;99.55;94477.69;4998722;28;20447;-81
2020/12/26 08:44:52;;;;;;;25.33;18.60;;;;;;;9.20;99.16;94494.56;4998458;28;20948;-86
2020/12/26 08:47:32;;;;;;;39.07;24.00;;;;;;;13.69;100.00;94479.13;4999685;28;20454;-76
2020/12/26 08:49:59;;;;;;;25.63;19.03;;;;;;;11.36;92.25;94506.53;4995907;28;20948;-80
2020/12/26 08:52:26;;;;;;;27.03;18.40;;;;;;;11.05;92.95;94516.44;4995737;28;20515;-77
2020/12/26 08:55:02;;;;;;;35.23;25.03;;;;;;;10.91;90.90;94506.38;4995893;28;20939;-84
2020/12/26 08:57:30;;;;;;;30.40;20.90;;;;;;;10.79;89.56;94497.00;4998926;28;20465;-79
2020/12/26 09:00:15;;;;;;;214.93;94.97;;;;;;;10.55;90.02;94472.03;5012881;28;20505;-80
2020/12/26 09:02:46;;;;;;;79.27;39.37;;;;;;;10.50;89.67;94494.41;4995475;28;20517;-80
2020/12/26 09:05:36;;;;;;;21.63;16.57;;;;;;;10.40;91.23;94476.03;4977136;28;20454;-80
2020/12/26 09:08:04;;;;;;;19.63;14.00;;;;;;;10.23;90.35;94459.22;4955391;29;20460;-83
2020/12/26 09:10:31;;;;;;;22.63;15.67;;;;;;;10.21;91.00;94479.53;4958191;28;20442;-89
2020/12/26 09:13:03;;;;;;;21.70;15.87;;;;;;;10.16;91.35;94467.75;4960049;29;20460;-88
2020/12/26 09:15:48;;;;;;;23.90;18.77;;;;;;;10.06;92.11;94464.28;4959172;29;20492;-85
2020/12/26 09:18:18;;;;;;;28.60;21.97;;;;;;;10.01;93.00;94484.84;4918412;29;20475;-85
2020/12/26 09:21:03;;;;;;;40.60;25.47;;;;;;;9.86;93.11;94451.19;4917689;29;20459;-85
2020/12/26 09:23:34;;;;;;;33.33;22.60;;;;;;;9.75;94.38;94474.88;4918264;29;20459;-84
2020/12/26 09:26:15;;;;;;;36.20;22.90;;;;;;;9.82;95.30;94470.75;4919657;29;20450;-84
2020/12/26 09:28:52;;;;;;;34.10;23.17;;;;;;;9.88;94.60;94469.41;4931055;29;20480;-82
2020/12/26 09:31:21;;;;;;;32.10;22.30;;;;;;;9.87;94.24;94465.94;4927576;29;20485;-81
2020/12/26 09:33:48;;;;;;;51.77;34.63;;;;;;;9.79;93.80;94465.78;4926837;29;20447;-81
2020/12/26 09:36:17;;;;;;;35.13;20.80;;;;;;;9.70;94.97;94461.38;4924216;29;20485;-81
2020/12/26 09:38:44;;;;;;;21.13;18.70;;;;;;;9.67;94.51;94469.50;4920693;29;20498;-81
2020/12/26 09:41:17;;;;;;;26.27;18.80;;;;;;;9.73;94.95;94453.22;4918171;29;20459;-82
2020/12/26 09:43:45;;;;;;;28.00;20.23;;;;;;;9.79;94.93;94454.47;4923190;29;20510;-81
2020/12/26 09:46:13;;;;;;;30.67;21.03;;;;;;;9.87;95.21;94460.72;4953876;29;20447;-83
2020/12/26 09:48:39;;;;;;;28.97;22.13;;;;;;;9.93;94.71;94431.31;4953900;29;20855;-81
2020/12/26 09:51:11;;;;;;;27.53;19.73;;;;;;;9.81;94.12;94458.59;4953805;29;20492;-82
2020/12/26 09:53:38;;;;;;;31.63;24.00;;;;;;;9.98;94.10;94464.97;4907644;29;20808;-84
2020/12/26 09:56:06;;;;;;;40.20;27.90;;;;;;;10.00;93.76;94457.81;4986810;28;20480;-80
2020/12/26 09:58:33;;;;;;;45.63;30.20;;;;;;;9.87;94.01;94439.75;5008903;28;20481;-83
2020/12/26 10:00:59;;;;;;;44.30;28.70;;;;;;;9.83;93.53;94430.50;5013044;28;20453;-83
2020/12/26 10:03:26;;;;;;;43.40;27.30;;;;;;;9.95;94.30;94446.91;4978791;28;20458;-83
2020/12/26 10:05:53;;;;;;;42.80;27.77;;;;;;;10.05;94.33;94462.63;5014504;28;20486;-82
2020/12/26 10:08:19;;;;;;;38.97;26.43;;;;;;;10.13;93.96;94457.56;5016609;28;20466;-88
2020/12/26 10:10:45;;;;;;;23.67;20.13;;;;;;;10.19;93.89;94451.75;5017974;28;20488;-82
2020/12/26 10:13:12;;;;;;;31.43;19.77;;;;;;;10.27;92.60;94454.53;5014007;28;20461;-82
2020/12/26 10:15:38;;;;;;;28.10;20.00;;;;;;;10.35;91.75;94454.66;5013768;28;20458;-82
2020/12/26 10:18:05;;;;;;;29.17;22.67;;;;;;;10.39;91.82;94442.91;5013612;28;20458;-82
2020/12/26 10:20:32;;;;;;;40.40;25.13;;;;;;;10.32;92.73;94436.56;5012989;28;20482;-83
2020/12/26 10:22:58;;;;;;;31.10;21.70;;;;;;;10.39;92.82;94449.97;5012822;28;20503;-82
2020/12/26 10:25:25;;;;;;;30.90;21.27;;;;;;;10.39;92.33;94445.53;4978684;28;20501;-82
2020/12/26 10:27:52;;;;;;;30.20;21.33;;;;;;;10.29;92.32;94430.78;5013398;28;20474;-82
2020/12/26 10:30:19;;;;;;;33.53;18.87;;;;;;;10.32;92.97;94447.06;5013408;28;20449;-82
2020/12/26 10:32:45;;;;;;;37.40;23.67;;;;;;;10.35;93.04;94441.53;5013298;28;20461;-82
2020/12/26 10:35:11;;;;;;;35.23;24.17;;;;;;;10.37;93.11;94428.28;5012888;28;20442;-81
2020/12/26 10:37:39;;;;;;;30.33;22.50;;;;;;;10.46;92.53;94458.94;5013639;28;20439;-85
2020/12/26 10:40:06;;;;;;;33.40;23.40;;;;;;;10.48;91.73;94446.50;5014189;28;20458;-85
2020/12/26 10:42:32;;;;;;;42.23;22.47;;;;;;;10.38;92.34;94414.22;4979951;28;20467;-86
2020/12/26 10:44:59;;;;;;;29.13;19.47;;;;;;;10.40;91.67;94454.22;5013608;28;20450;-86
2020/12/26 10:47:25;;;;;;;35.97;23.93;;;;;;;10.43;92.00;94469.72;5013823;28;20516;-85
2020/12/26 10:49:51;;;;;;;29.10;19.47;;;;;;;10.47;91.67;94450.09;5014329;28;20455;-86
2020/12/26 10:52:18;;;;;;;24.53;19.80;;;;;;;10.46;91.69;94449.28;5013942;28;20475;-87
2020/12/26 10:54:45;;;;;;;23.77;16.93;;;;;;;10.53;92.06;94455.63;5013718;28;20511;-87
2020/12/26 10:57:12;;;;;;;22.83;17.23;;;;;;;10.60;91.19;94450.63;5014944;28;20877;-87
2020/12/26 10:59:38;;;;;;;24.97;16.37;;;;;;;10.67;91.14;94448.25;5013845;28;20482;-86
2020/12/26 11:02:05;;;;;;;36.23;22.47;;;;;;;10.69;90.43;94454.19;5013662;28;20459;-86
2020/12/26 11:04:31;;;;;;;39.60;25.00;;;;;;;10.72;89.60;94443.44;5013287;28;20459;-85
2020/12/26 11:06:58;;;;;;;38.60;20.63;;;;;;;10.70;90.08;94450.63;5013006;28;20538;-84
2020/12/26 11:09:24;;;;;;;35.83;21.70;;;;;;;11.26;100.00;94454.97;5013301;28;20448;-83
2020/12/26 11:11:53;;;;;;;30.80;21.17;;;;;;;11.10;93.93;94458.22;5006979;28;20971;-83
2020/12/26 11:14:19;;;;;;;26.03;18.70;;;;;;;11.07;90.51;94469.03;4993414;28;20800;-83
2020/12/26 11:16:49;;;;;;;27.30;18.43;;;;;;;11.08;88.83;94465.44;4994577;28;20468;-91
2020/12/26 11:19:17;;;;;;;31.20;21.05;;;;;;;11.11;88.07;94467.75;4993783;28;20933;-83
2020/12/26 11:21:43;;;;;;;47.53;31.40;;;;;;;11.11;86.46;94462.50;4994255;28;20204;-87
2020/12/26 11:24:10;;;;;;;35.00;23.50;;;;;;;11.10;87.56;94469.56;4976299;28;20472;-86
2020/12/26 11:26:38;;;;;;;39.77;24.63;;;;;;;11.04;87.78;94458.81;4994599;28;20859;-90
2020/12/26 11:29:06;;;;;;;32.70;21.50;;;;;;;11.02;87.29;94448.47;4994294;28;20460;-86